PWSweather.com
Personal Weather Stations
Station Observations
KVAGLENALL
West Henrico, Glen Allen, VA 23060-6503

West HenricoGlen Allen, VA 23060-6503

Lat: 37.6554, Lon: -77.5693

Elevation: 273

Station Type: Davis Vantage Pro II

www.glenallenweather.com

High Low Average
Temperature 74.4°F23.6°C 52.7°F11.5°C 62.9°F17.2°C
Dew Point 63.4°F17.4°C 47.3°F8.5°C 57.2°F14.0°C
Winds 18.0 mph 29.0 kmh 1.0 mph 1.6 kmh 7.0 mph SSW11.3 kmh SSW
Wind Gusts 21.2 mph34.1 kmh 5.1 mph8.2 kmh 12.0 mph19.3 kmh
Humidity 93% 67% 82%
Pressure 30.14 in1020.7 mb 29.79 in1008.8 mb -
Precipitation 0.00 in0.0 mm - -
Hour Temp Dew Point Humidity Winds Wind Gusts Pressure Precip Precip Rate Daily Precip Total
12:00 AM 52.7°F11.5°C 47.3°F8.5°C 82% 7.0 mph S11.3 kmh S 9.1 mph14.6 kmh 30.14 in1020.7 mb 0.00 in0.0 mm 0.00 in0.0 mm 0.00 in0.0 mm
12:15 AM 53.0°F11.7°C 47.6°F8.7°C 82% 3.0 mph WSW4.8 kmh WSW 6.1 mph9.8 kmh 30.13 in1020.3 mb 0.00 in0.0 mm 0.00 in0.0 mm 0.00 in0.0 mm
12:30 AM 53.4°F11.9°C 48.0°F8.9°C 82% 2.0 mph SSW3.2 kmh SSW 13.1 mph21.1 kmh 30.13 in1020.3 mb 0.00 in0.0 mm 0.00 in0.0 mm 0.00 in0.0 mm
12:45 AM 53.6°F12.0°C 48.5°F9.2°C 83% 5.0 mph SW8.0 kmh SW 7.1 mph11.4 kmh 30.12 in1020.0 mb 0.00 in0.0 mm 0.00 in0.0 mm 0.00 in0.0 mm
01:00 AM 53.7°F12.1°C 48.6°F9.2°C 83% 6.0 mph SW9.7 kmh SW 14.1 mph22.7 kmh 30.11 in1019.6 mb 0.00 in0.0 mm 0.00 in0.0 mm 0.00 in0.0 mm
01:15 AM 53.8°F12.1°C 49.1°F9.5°C 84% 4.0 mph SW6.4 kmh SW 7.1 mph11.4 kmh 30.10 in1019.3 mb 0.00 in0.0 mm 0.00 in0.0 mm 0.00 in0.0 mm
01:30 AM 53.5°F11.9°C 49.7°F9.8°C 87% 8.0 mph SW12.9 kmh SW 11.1 mph17.9 kmh 30.10 in1019.3 mb 0.00 in0.0 mm 0.00 in0.0 mm 0.00 in0.0 mm
01:45 AM 53.3°F11.8°C 50.1°F10.1°C 89% 6.0 mph SW9.7 kmh SW 6.1 mph9.8 kmh 30.10 in1019.3 mb 0.00 in0.0 mm 0.00 in0.0 mm 0.00 in0.0 mm
02:00 AM 53.3°F11.8°C 50.1°F10.1°C 89% 9.0 mph SSW14.5 kmh SSW 11.1 mph17.9 kmh 30.08 in1018.6 mb 0.00 in0.0 mm 0.00 in0.0 mm 0.00 in0.0 mm
02:15 AM 53.3°F11.8°C 50.4°F10.2°C 90% 7.0 mph SW11.3 kmh SW 10.1 mph16.3 kmh 30.07 in1018.3 mb 0.00 in0.0 mm 0.00 in0.0 mm 0.00 in0.0 mm
02:30 AM 53.3°F11.8°C 50.4°F10.2°C 90% 4.0 mph SW6.4 kmh SW 8.1 mph13.0 kmh 30.07 in1018.3 mb 0.00 in0.0 mm 0.00 in0.0 mm 0.00 in0.0 mm
02:45 AM 53.3°F11.8°C 50.7°F10.4°C 91% 5.0 mph SW8.0 kmh SW 8.1 mph13.0 kmh 30.07 in1018.3 mb 0.01 in0.3 mm 0.04 in1.0 mm 0.01 in0.3 mm
03:00 AM 53.3°F11.8°C 50.7°F10.4°C 91% 1.0 mph SSW1.6 kmh SSW 5.1 mph8.2 kmh 30.06 in1017.9 mb 0.01 in0.3 mm 0.00 in0.0 mm 0.01 in0.3 mm
03:15 AM 53.5°F11.9°C 50.9°F10.5°C 91% 9.0 mph SSW14.5 kmh SSW 9.1 mph14.6 kmh 30.05 in1017.6 mb 0.01 in0.3 mm 0.00 in0.0 mm 0.01 in0.3 mm
03:30 AM 53.8°F12.1°C 50.9°F10.5°C 90% 4.0 mph SW6.4 kmh SW 6.1 mph9.8 kmh 30.05 in1017.6 mb 0.01 in0.3 mm 0.00 in0.0 mm 0.01 in0.3 mm
03:45 AM 53.9°F12.2°C 51.3°F10.7°C 91% 6.0 mph SSW9.7 kmh SSW 9.1 mph14.6 kmh 30.05 in1017.6 mb 0.01 in0.3 mm 0.00 in0.0 mm 0.01 in0.3 mm
04:00 AM 54.1°F12.3°C 51.5°F10.8°C 91% 7.0 mph S11.3 kmh S 9.1 mph14.6 kmh 30.05 in1017.6 mb 0.00 in0.0 mm 0.00 in0.0 mm 0.01 in0.3 mm
04:15 AM 54.4°F12.4°C 51.8°F11.0°C 91% 3.0 mph SW4.8 kmh SW 9.1 mph14.6 kmh 30.04 in1017.3 mb 0.00 in0.0 mm 0.00 in0.0 mm 0.01 in0.3 mm
04:30 AM 54.7°F12.6°C 51.8°F11.0°C 90% 4.0 mph SSW6.4 kmh SSW 11.1 mph17.9 kmh 30.03 in1016.9 mb 0.00 in0.0 mm 0.00 in0.0 mm 0.01 in0.3 mm
04:45 AM 54.8°F12.7°C 51.9°F11.1°C 90% 7.0 mph S11.3 kmh S 13.1 mph21.1 kmh 30.03 in1016.9 mb 0.00 in0.0 mm 0.00 in0.0 mm 0.01 in0.3 mm
05:00 AM 54.9°F12.7°C 52.3°F11.3°C 91% 7.0 mph SW11.3 kmh SW 9.1 mph14.6 kmh 30.03 in1016.9 mb 0.00 in0.0 mm 0.00 in0.0 mm 0.01 in0.3 mm
05:15 AM 55.0°F12.8°C 52.4°F11.3°C 91% 5.0 mph SW8.0 kmh SW 9.1 mph14.6 kmh 30.02 in1016.6 mb 0.00 in0.0 mm 0.00 in0.0 mm 0.01 in0.3 mm
05:30 AM 54.9°F12.7°C 52.3°F11.3°C 91% 4.0 mph SW6.4 kmh SW 8.1 mph13.0 kmh 30.03 in1016.9 mb 0.00 in0.0 mm 0.00 in0.0 mm 0.01 in0.3 mm
05:45 AM 54.9°F12.7°C 52.3°F11.3°C 91% 4.0 mph SSW6.4 kmh SSW 9.1 mph14.6 kmh 30.03 in1016.9 mb 0.00 in0.0 mm 0.00 in0.0 mm 0.01 in0.3 mm
06:00 AM 55.0°F12.8°C 52.4°F11.3°C 91% 7.0 mph SW11.3 kmh SW 8.1 mph13.0 kmh 30.03 in1016.9 mb 0.00 in0.0 mm 0.00 in0.0 mm 0.01 in0.3 mm
06:15 AM 54.8°F12.7°C 52.2°F11.2°C 91% 6.0 mph SW9.7 kmh SW 10.1 mph16.3 kmh 30.03 in1016.9 mb 0.00 in0.0 mm 0.00 in0.0 mm 0.01 in0.3 mm
06:30 AM 54.9°F12.7°C 52.6°F11.4°C 92% 8.0 mph SSW12.9 kmh SSW 9.1 mph14.6 kmh 30.03 in1016.9 mb 0.00 in0.0 mm 0.00 in0.0 mm 0.01 in0.3 mm
06:45 AM 54.8°F12.7°C 52.5°F11.4°C 92% 8.0 mph SW12.9 kmh SW 12.1 mph19.5 kmh 30.02 in1016.6 mb 0.00 in0.0 mm 0.00 in0.0 mm 0.01 in0.3 mm
07:00 AM 54.9°F12.7°C 52.6°F11.4°C 92% 5.0 mph WSW8.0 kmh WSW 11.1 mph17.9 kmh 30.02 in1016.6 mb 0.00 in0.0 mm 0.00 in0.0 mm 0.01 in0.3 mm
07:15 AM 54.8°F12.7°C 52.8°F11.6°C 93% 10.0 mph SSW16.1 kmh SSW 12.1 mph19.5 kmh 30.03 in1016.9 mb 0.00 in0.0 mm 0.00 in0.0 mm 0.01 in0.3 mm
07:30 AM 54.9°F12.7°C 52.9°F11.6°C 93% 8.0 mph S12.9 kmh S 12.1 mph19.5 kmh 30.03 in1016.9 mb 0.00 in0.0 mm 0.00 in0.0 mm 0.01 in0.3 mm
07:45 AM 55.2°F12.9°C 53.2°F11.8°C 93% 6.0 mph S9.7 kmh S 13.1 mph21.1 kmh 30.03 in1016.9 mb 0.00 in0.0 mm 0.00 in0.0 mm 0.01 in0.3 mm
08:00 AM 55.7°F13.2°C 53.7°F12.1°C 93% 4.0 mph SW6.4 kmh SW 12.1 mph19.5 kmh 30.02 in1016.6 mb 0.00 in0.0 mm 0.00 in0.0 mm 0.01 in0.3 mm
08:15 AM 56.1°F13.4°C 53.8°F12.1°C 92% 6.0 mph SW9.7 kmh SW 11.1 mph17.9 kmh 30.04 in1017.3 mb 0.00 in0.0 mm 0.00 in0.0 mm 0.01 in0.3 mm
08:30 AM 56.5°F13.6°C 54.2°F12.3°C 92% 3.0 mph SSW4.8 kmh SSW 7.1 mph11.4 kmh 30.04 in1017.3 mb 0.00 in0.0 mm 0.00 in0.0 mm 0.01 in0.3 mm
08:45 AM 56.9°F13.8°C 54.6°F12.6°C 92% 7.0 mph SSW11.3 kmh SSW 13.1 mph21.1 kmh 30.03 in1016.9 mb 0.00 in0.0 mm 0.00 in0.0 mm 0.01 in0.3 mm
09:00 AM 57.6°F14.2°C 55.0°F12.8°C 91% 9.0 mph SW14.5 kmh SW 9.1 mph14.6 kmh 30.03 in1016.9 mb 0.00 in0.0 mm 0.00 in0.0 mm 0.01 in0.3 mm
09:15 AM 58.1°F14.5°C 55.5°F13.1°C 91% 10.0 mph SW16.1 kmh SW 12.1 mph19.5 kmh 30.02 in1016.6 mb 0.00 in0.0 mm 0.00 in0.0 mm 0.01 in0.3 mm
09:30 AM 59.0°F15.0°C 56.1°F13.4°C 90% 7.0 mph SSW11.3 kmh SSW 11.1 mph17.9 kmh 30.02 in1016.6 mb 0.00 in0.0 mm 0.00 in0.0 mm 0.01 in0.3 mm
09:45 AM 59.7°F15.4°C 56.5°F13.6°C 89% 6.0 mph SW9.7 kmh SW 13.1 mph21.1 kmh 30.03 in1016.9 mb 0.00 in0.0 mm 0.00 in0.0 mm 0.01 in0.3 mm
10:00 AM 60.6°F15.9°C 57.0°F13.9°C 88% 7.0 mph WSW11.3 kmh WSW 11.1 mph17.9 kmh 30.02 in1016.6 mb 0.00 in0.0 mm 0.00 in0.0 mm 0.01 in0.3 mm
10:15 AM 61.4°F16.3°C 57.5°F14.2°C 87% 6.0 mph S9.7 kmh S 15.1 mph24.3 kmh 30.03 in1016.9 mb 0.00 in0.0 mm 0.00 in0.0 mm 0.01 in0.3 mm
10:30 AM 61.6°F16.4°C 57.7°F14.3°C 87% 9.0 mph SW14.5 kmh SW 12.1 mph19.5 kmh 30.03 in1016.9 mb 0.00 in0.0 mm 0.00 in0.0 mm 0.01 in0.3 mm
10:45 AM 61.8°F16.6°C 57.6°F14.2°C 86% 5.0 mph SSW8.0 kmh SSW 9.1 mph14.6 kmh 30.02 in1016.6 mb 0.00 in0.0 mm 0.00 in0.0 mm 0.01 in0.3 mm
11:00 AM 62.1°F16.7°C 57.9°F14.4°C 86% 11.0 mph SW17.7 kmh SW 11.1 mph17.9 kmh 30.01 in1016.3 mb 0.00 in0.0 mm 0.00 in0.0 mm 0.01 in0.3 mm
11:15 AM 62.4°F16.9°C 57.9°F14.4°C 85% 6.0 mph SW9.7 kmh SW 14.1 mph22.7 kmh 30.01 in1016.3 mb 0.00 in0.0 mm 0.00 in0.0 mm 0.01 in0.3 mm
11:30 AM 62.7°F17.1°C 58.1°F14.5°C 85% 9.0 mph SSW14.5 kmh SSW 13.1 mph21.1 kmh 30.00 in1015.9 mb 0.00 in0.0 mm 0.00 in0.0 mm 0.01 in0.3 mm
11:45 AM 63.6°F17.6°C 59.0°F15.0°C 85% 8.0 mph S12.9 kmh S 12.1 mph19.5 kmh 29.99 in1015.6 mb 0.00 in0.0 mm 0.00 in0.0 mm 0.01 in0.3 mm
12:00 PM 64.3°F17.9°C 59.1°F15.1°C 83% 6.0 mph SW9.7 kmh SW 15.1 mph24.3 kmh 29.97 in1014.9 mb 0.00 in0.0 mm 0.00 in0.0 mm 0.01 in0.3 mm
12:15 PM 64.2°F17.9°C 59.0°F15.0°C 83% 6.0 mph SW9.7 kmh SW 14.1 mph22.7 kmh 29.97 in1014.9 mb 0.00 in0.0 mm 0.00 in0.0 mm 0.01 in0.3 mm
12:30 PM 64.3°F17.9°C 59.1°F15.1°C 83% 7.0 mph SW11.3 kmh SW 12.1 mph19.5 kmh 29.97 in1014.9 mb 0.00 in0.0 mm 0.00 in0.0 mm 0.01 in0.3 mm
12:45 PM 65.4°F18.6°C 60.1°F15.6°C 83% 9.0 mph SSW14.5 kmh SSW 9.1 mph14.6 kmh 29.96 in1014.6 mb 0.00 in0.0 mm 0.00 in0.0 mm 0.01 in0.3 mm
01:00 PM 65.5°F18.6°C 60.2°F15.7°C 83% 9.0 mph S14.5 kmh S 12.1 mph19.5 kmh 29.95 in1014.2 mb 0.00 in0.0 mm 0.00 in0.0 mm 0.01 in0.3 mm
01:15 PM 68.2°F20.1°C 61.5°F16.4°C 79% 8.0 mph SW12.9 kmh SW 12.1 mph19.5 kmh 29.93 in1013.5 mb 0.00 in0.0 mm 0.00 in0.0 mm 0.01 in0.3 mm
01:30 PM 71.4°F21.9°C 62.3°F16.8°C 73% 18.0 mph S29.0 kmh S 20.2 mph32.5 kmh 29.93 in1013.5 mb 0.00 in0.0 mm 0.00 in0.0 mm 0.01 in0.3 mm
01:45 PM 70.7°F21.5°C 62.4°F16.9°C 75% 14.0 mph SW22.5 kmh SW 18.2 mph29.3 kmh 29.92 in1013.2 mb 0.00 in0.0 mm 0.00 in0.0 mm 0.01 in0.3 mm
02:00 PM 71.6°F22.0°C 62.5°F16.9°C 73% 7.0 mph S11.3 kmh S 11.1 mph17.9 kmh 29.91 in1012.9 mb 0.00 in0.0 mm 0.00 in0.0 mm 0.01 in0.3 mm
02:15 PM 72.6°F22.6°C 63.0°F17.2°C 72% 11.0 mph S17.7 kmh S 18.2 mph29.3 kmh 29.90 in1012.5 mb 0.00 in0.0 mm 0.00 in0.0 mm 0.01 in0.3 mm
02:30 PM 73.8°F23.2°C 63.4°F17.4°C 70% 2.0 mph SW3.2 kmh SW 11.1 mph17.9 kmh 29.90 in1012.5 mb 0.00 in0.0 mm 0.00 in0.0 mm 0.01 in0.3 mm
02:45 PM 73.6°F23.1°C 63.2°F17.3°C 70% 7.0 mph S11.3 kmh S 12.1 mph19.5 kmh 29.89 in1012.2 mb 0.00 in0.0 mm 0.00 in0.0 mm 0.01 in0.3 mm
03:00 PM 74.2°F23.4°C 62.9°F17.2°C 68% 12.0 mph SW19.3 kmh SW 18.2 mph29.3 kmh 29.88 in1011.9 mb 0.00 in0.0 mm 0.00 in0.0 mm 0.01 in0.3 mm
03:15 PM 74.4°F23.6°C 62.7°F17.1°C 67% 7.0 mph S11.3 kmh S 15.1 mph24.3 kmh 29.87 in1011.5 mb 0.00 in0.0 mm 0.00 in0.0 mm 0.01 in0.3 mm
03:30 PM 74.4°F23.6°C 62.7°F17.1°C 67% 6.0 mph SSW9.7 kmh SSW 16.2 mph26.1 kmh 29.88 in1011.9 mb 0.00 in0.0 mm 0.00 in0.0 mm 0.01 in0.3 mm
03:45 PM 74.3°F23.5°C 62.6°F17.0°C 67% 10.0 mph N16.1 kmh N 18.2 mph29.3 kmh 29.88 in1011.9 mb 0.00 in0.0 mm 0.00 in0.0 mm 0.01 in0.3 mm
04:00 PM 74.3°F23.5°C 63.0°F17.2°C 68% 3.0 mph SSW4.8 kmh SSW 12.1 mph19.5 kmh 29.88 in1011.9 mb 0.00 in0.0 mm 0.00 in0.0 mm 0.01 in0.3 mm
04:15 PM 74.2°F23.4°C 62.5°F16.9°C 67% 4.0 mph SW6.4 kmh SW 8.1 mph13.0 kmh 29.88 in1011.9 mb 0.00 in0.0 mm 0.00 in0.0 mm 0.01 in0.3 mm
04:30 PM 73.9°F23.3°C 62.2°F16.8°C 67% 14.0 mph SSW22.5 kmh SSW 21.2 mph34.1 kmh 29.87 in1011.5 mb 0.00 in0.0 mm 0.00 in0.0 mm 0.01 in0.3 mm
04:45 PM 73.6°F23.1°C 62.4°F16.9°C 68% 8.0 mph SSW12.9 kmh SSW 8.1 mph13.0 kmh 29.86 in1011.2 mb 0.00 in0.0 mm 0.00 in0.0 mm 0.01 in0.3 mm
05:00 PM 73.3°F22.9°C 62.5°F16.9°C 69% 10.0 mph SSW16.1 kmh SSW 13.1 mph21.1 kmh 29.86 in1011.2 mb 0.00 in0.0 mm 0.00 in0.0 mm 0.01 in0.3 mm
05:15 PM 72.8°F22.7°C 62.0°F16.7°C 69% 6.0 mph SSW9.7 kmh SSW 9.1 mph14.6 kmh 29.85 in1010.8 mb 0.00 in0.0 mm 0.00 in0.0 mm 0.01 in0.3 mm
05:30 PM 72.5°F22.5°C 62.1°F16.7°C 70% 8.0 mph S12.9 kmh S 10.1 mph16.3 kmh 29.85 in1010.8 mb 0.00 in0.0 mm 0.00 in0.0 mm 0.01 in0.3 mm
05:45 PM 71.9°F22.2°C 62.0°F16.7°C 71% 11.0 mph SSW17.7 kmh SSW 16.2 mph26.1 kmh 29.85 in1010.8 mb 0.00 in0.0 mm 0.00 in0.0 mm 0.01 in0.3 mm
06:00 PM 71.5°F21.9°C 62.0°F16.7°C 72% 13.0 mph SSW20.9 kmh SSW 13.1 mph21.1 kmh 29.85 in1010.8 mb 0.00 in0.0 mm 0.00 in0.0 mm 0.01 in0.3 mm
06:15 PM 70.9°F21.6°C 61.4°F16.3°C 72% 7.0 mph S11.3 kmh S 12.1 mph19.5 kmh 29.86 in1011.2 mb 0.00 in0.0 mm 0.00 in0.0 mm 0.01 in0.3 mm
06:30 PM 70.7°F21.5°C 61.6°F16.4°C 73% 10.0 mph SW16.1 kmh SW 11.1 mph17.9 kmh 29.87 in1011.5 mb 0.00 in0.0 mm 0.00 in0.0 mm 0.01 in0.3 mm
06:45 PM 70.4°F21.3°C 61.3°F16.3°C 73% 9.0 mph SW14.5 kmh SW 13.1 mph21.1 kmh 29.87 in1011.5 mb 0.00 in0.0 mm 0.00 in0.0 mm 0.01 in0.3 mm
07:00 PM 69.8°F21.0°C 61.5°F16.4°C 75% 3.0 mph WSW4.8 kmh WSW 6.1 mph9.8 kmh 29.86 in1011.2 mb 0.00 in0.0 mm 0.00 in0.0 mm 0.01 in0.3 mm
07:15 PM 68.9°F20.5°C 61.1°F16.2°C 76% 6.0 mph SE9.7 kmh SE 8.1 mph13.0 kmh 29.85 in1010.8 mb 0.00 in0.0 mm 0.00 in0.0 mm 0.01 in0.3 mm
07:30 PM 68.4°F20.2°C 61.3°F16.3°C 78% 6.0 mph SSW9.7 kmh SSW 12.1 mph19.5 kmh 29.85 in1010.8 mb 0.00 in0.0 mm 0.00 in0.0 mm 0.01 in0.3 mm
07:45 PM 68.4°F20.2°C 61.3°F16.3°C 78% 8.0 mph SW12.9 kmh SW 13.1 mph21.1 kmh 29.85 in1010.8 mb 0.00 in0.0 mm 0.00 in0.0 mm 0.01 in0.3 mm
08:00 PM 68.6°F20.3°C 61.5°F16.4°C 78% 9.0 mph SSW14.5 kmh SSW 15.1 mph24.3 kmh 29.84 in1010.5 mb 0.00 in0.0 mm 0.00 in0.0 mm 0.01 in0.3 mm
08:15 PM 68.6°F20.3°C 61.2°F16.2°C 77% 5.0 mph SW8.0 kmh SW 14.1 mph22.7 kmh 29.84 in1010.5 mb 0.00 in0.0 mm 0.00 in0.0 mm 0.01 in0.3 mm
08:30 PM 68.4°F20.2°C 61.3°F16.3°C 78% 9.0 mph S14.5 kmh S 10.1 mph16.3 kmh 29.84 in1010.5 mb 0.00 in0.0 mm 0.00 in0.0 mm 0.01 in0.3 mm
08:45 PM 68.4°F20.2°C 61.3°F16.3°C 78% 9.0 mph SSW14.5 kmh SSW 14.1 mph22.7 kmh 29.84 in1010.5 mb 0.00 in0.0 mm 0.00 in0.0 mm 0.01 in0.3 mm
09:00 PM 68.2°F20.1°C 61.1°F16.2°C 78% 7.0 mph SSW11.3 kmh SSW 13.1 mph21.1 kmh 29.84 in1010.5 mb 0.00 in0.0 mm 0.00 in0.0 mm 0.01 in0.3 mm
09:15 PM 67.9°F19.9°C 61.2°F16.2°C 79% 9.0 mph SSW14.5 kmh SSW 9.1 mph14.6 kmh 29.83 in1010.2 mb 0.00 in0.0 mm 0.00 in0.0 mm 0.01 in0.3 mm
09:30 PM 67.6°F19.8°C 61.3°F16.3°C 80% 10.0 mph SSW16.1 kmh SSW 11.1 mph17.9 kmh 29.83 in1010.2 mb 0.00 in0.0 mm 0.00 in0.0 mm 0.01 in0.3 mm
09:45 PM 67.5°F19.7°C 61.2°F16.2°C 80% 8.0 mph SSW12.9 kmh SSW 12.1 mph19.5 kmh 29.82 in1009.8 mb 0.00 in0.0 mm 0.00 in0.0 mm 0.01 in0.3 mm
10:00 PM 67.5°F19.7°C 61.2°F16.2°C 80% 11.0 mph SSW17.7 kmh SSW 13.1 mph21.1 kmh 29.81 in1009.5 mb 0.00 in0.0 mm 0.00 in0.0 mm 0.01 in0.3 mm
10:15 PM 67.6°F19.8°C 61.3°F16.3°C 80% 6.0 mph SW9.7 kmh SW 15.1 mph24.3 kmh 29.81 in1009.5 mb 0.00 in0.0 mm 0.00 in0.0 mm 0.01 in0.3 mm
10:30 PM 67.4°F19.7°C 61.4°F16.3°C 81% 7.0 mph SSW11.3 kmh SSW 13.1 mph21.1 kmh 29.81 in1009.5 mb 0.00 in0.0 mm 0.00 in0.0 mm 0.01 in0.3 mm
10:45 PM 67.3°F19.6°C 61.3°F16.3°C 81% 10.0 mph SSW16.1 kmh SSW 15.1 mph24.3 kmh 29.80 in1009.1 mb 0.00 in0.0 mm 0.00 in0.0 mm 0.01 in0.3 mm
11:00 PM 67.4°F19.7°C 61.4°F16.3°C 81% 6.0 mph SW9.7 kmh SW 13.1 mph21.1 kmh 29.80 in1009.1 mb 0.00 in0.0 mm 0.00 in0.0 mm 0.01 in0.3 mm
11:15 PM 67.0°F19.4°C 61.4°F16.3°C 82% 8.0 mph SW12.9 kmh SW 13.1 mph21.1 kmh 29.79 in1008.8 mb 0.00 in0.0 mm 0.00 in0.0 mm 0.01 in0.3 mm
11:30 PM 67.1°F19.5°C 61.5°F16.4°C 82% 7.0 mph SW11.3 kmh SW 15.1 mph24.3 kmh 29.79 in1008.8 mb 0.00 in0.0 mm 0.00 in0.0 mm 0.01 in0.3 mm
11:45 PM 66.9°F19.4°C 61.3°F16.3°C 82% 4.0 mph S6.4 kmh S 8.1 mph13.0 kmh 29.79 in1008.8 mb 0.00 in0.0 mm 0.00 in0.0 mm 0.01 in0.3 mm